createdAt,value
2018-12-12T00:00:50.911Z,101776.77
2018-12-12T00:03:20.234Z,101775.80
2018-12-12T00:05:49.015Z,101778.20
2018-12-12T00:08:18.498Z,101787.11
2018-12-12T00:10:48.309Z,101789.16
2018-12-12T00:13:16.997Z,101798.45
2018-12-12T00:15:46.437Z,101802.17
2018-12-12T00:18:15.438Z,101810.71
2018-12-12T00:20:44.265Z,101805.77
2018-12-12T00:23:14.054Z,101810.83
2018-12-12T00:25:42.865Z,101808.78
2018-12-12T00:28:11.723Z,101808.53
2018-12-12T00:30:40.416Z,101814.79
2018-12-12T00:33:09.107Z,101806.37
2018-12-12T00:35:38.756Z,101807.46
2018-12-12T00:38:08.403Z,101808.53
2018-12-12T00:40:37.143Z,101808.53
2018-12-12T00:43:05.925Z,101812.39
2018-12-12T00:45:35.464Z,101812.03
2018-12-12T00:48:04.207Z,101820.59
2018-12-12T00:50:32.918Z,101817.70
2018-12-12T00:53:03.527Z,101825.64
2018-12-12T00:55:32.284Z,101829.34
2018-12-12T00:58:02.092Z,101831.17
2018-12-12T01:00:31.704Z,101838.86
2018-12-12T01:03:01.111Z,101832.02
2018-12-12T01:05:30.524Z,101842.95
2018-12-12T01:07:59.291Z,101841.86
2018-12-12T01:10:28.682Z,101843.91
2018-12-12T01:12:57.689Z,101846.44
2018-12-12T01:15:27.499Z,101844.52
2018-12-12T01:17:56.390Z,101858.11
2018-12-12T01:20:25.297Z,101861.48
2018-12-12T01:22:54.082Z,101857.03
2018-12-12T01:25:22.866Z,101861.00
2018-12-12T01:27:51.779Z,101862.69
2018-12-12T01:30:20.480Z,101860.05
2018-12-12T01:32:49.157Z,101865.33
2018-12-12T01:35:19.069Z,101876.50
2018-12-12T01:37:47.772Z,101875.19
2018-12-12T01:40:16.526Z,101874.55
2018-12-12T01:42:45.354Z,101872.06
2018-12-12T01:45:15.012Z,101873.72
2018-12-12T01:47:43.823Z,101881.42
2018-12-12T01:50:12.559Z,101891.75
2018-12-12T01:52:41.961Z,101873.72
2018-12-12T01:55:10.668Z,101874.31
2018-12-12T01:57:40.237Z,101880.20
2018-12-12T02:00:09.932Z,101883.45
2018-12-12T02:02:39.274Z,101877.92
2018-12-12T02:05:08.772Z,101878.99
2018-12-12T02:07:37.470Z,101887.41
2018-12-12T02:10:07.386Z,101880.06
2018-12-12T02:12:36.198Z,101881.28
2018-12-12T02:15:06.063Z,101881.28
2018-12-12T02:17:34.822Z,101882.13
2018-12-12T02:20:03.716Z,101876.22
2018-12-12T02:22:32.592Z,101880.41
2018-12-12T02:25:01.306Z,101899.40
2018-12-12T02:27:30.220Z,101889.41
2018-12-12T02:29:59.055Z,101900.33
2018-12-12T02:32:29.003Z,101901.39
2018-12-12T02:34:57.837Z,101900.55
2018-12-12T02:37:27.292Z,101905.47
2018-12-12T02:39:57.918Z,101899.38
2018-12-12T02:42:26.917Z,101902.31
2018-12-12T02:44:56.973Z,101909.91
2018-12-12T02:47:26.565Z,101903.89
2018-12-12T02:49:55.927Z,101916.26
2018-12-12T02:52:26.170Z,101914.20
2018-12-12T02:54:55.511Z,101918.76
2018-12-12T02:57:25.495Z,101921.06
2018-12-12T02:59:54.945Z,101920.22
2018-12-12T03:02:25.271Z,101924.04
2018-12-12T03:04:55.032Z,101912.48
2018-12-12T03:07:23.968Z,101925.43
2018-12-12T03:09:52.701Z,101927.37
2018-12-12T03:12:21.462Z,101931.44
2018-12-12T03:14:50.920Z,101935.88
2018-12-12T03:17:19.700Z,101904.72
2018-12-12T03:19:48.470Z,101936.20
2018-12-12T03:22:17.827Z,101927.06
2018-12-12T03:24:46.768Z,101925.27
2018-12-12T03:27:15.477Z,101938.84
2018-12-12T03:29:44.325Z,101947.25
2018-12-12T03:32:14.030Z,101956.50
2018-12-12T03:34:43.058Z,101945.30
2018-12-12T03:37:11.994Z,101947.88
2018-12-12T03:39:41.650Z,101963.98
2018-12-12T03:42:10.547Z,101961.45
2018-12-12T03:44:39.639Z,101963.25
2018-12-12T03:47:09.605Z,101962.04
2018-12-12T03:49:38.397Z,101962.77
2018-12-12T03:52:07.910Z,101961.45
2018-12-12T03:54:39.153Z,101967.95
2018-12-12T03:57:08.697Z,101973.60
2018-12-12T03:59:38.203Z,101967.59
2018-12-12T04:02:07.483Z,101981.44
2018-12-12T04:04:47.978Z,101981.22
2018-12-12T04:07:16.857Z,101986.03
2018-12-12T04:09:45.808Z,101987.83
2018-12-12T04:12:14.590Z,101980.74
2018-12-12T04:14:44.044Z,101990.11
2018-12-12T04:17:12.780Z,101974.46
2018-12-12T04:19:41.515Z,101994.08
2018-12-12T04:22:11.224Z,101998.88
2018-12-12T04:24:40.326Z,102009.59
2018-12-12T04:27:09.143Z,102016.53
2018-12-12T04:29:37.871Z,102006.86
2018-12-12T04:32:06.656Z,102010.33
2018-12-12T04:34:35.430Z,102010.70
2018-12-12T04:37:04.210Z,102014.72
2018-12-12T04:39:34.000Z,102026.95
2018-12-12T04:42:02.784Z,102028.33
2018-12-12T04:44:31.509Z,102024.73
2018-12-12T04:47:01.111Z,102018.82
2018-12-12T04:49:29.786Z,102028.78
2018-12-12T04:51:59.362Z,102027.47
2018-12-12T04:54:28.814Z,102036.34
2018-12-12T04:56:58.484Z,102046.90
2018-12-12T04:59:28.174Z,102054.92
2018-12-12T05:01:58.178Z,102051.85
2018-12-12T05:04:27.720Z,102054.47
2018-12-12T05:06:57.117Z,102059.98
2018-12-12T05:09:26.100Z,102061.30
2018-12-12T05:11:54.910Z,102069.77
2018-12-12T05:14:24.357Z,102066.97
2018-12-12T05:16:53.117Z,102070.18
2018-12-12T05:19:21.905Z,102068.66
2018-12-12T05:21:51.402Z,102071.88
2018-12-12T05:24:20.100Z,102069.23
2018-12-12T05:26:48.765Z,102070.18
2018-12-12T05:29:17.465Z,102066.49
2018-12-12T05:31:46.444Z,102066.83
2018-12-12T05:34:15.501Z,102068.15
2018-12-12T05:36:44.426Z,102081.34
2018-12-12T05:39:14.481Z,102076.44
2018-12-12T05:41:43.249Z,102092.11
2018-12-12T05:44:11.997Z,102084.09
2018-12-12T05:46:41.906Z,102093.90
2018-12-12T05:49:10.921Z,102092.03
2018-12-12T05:51:40.281Z,102097.41
2018-12-12T05:54:10.085Z,102103.91
2018-12-12T05:56:38.779Z,102105.33
2018-12-12T05:59:07.448Z,102105.90
2018-12-12T06:01:36.885Z,102110.23
2018-12-12T06:04:06.280Z,102116.26
2018-12-12T06:06:35.035Z,102118.42
2018-12-12T06:09:06.107Z,102121.63
2018-12-12T06:11:34.817Z,102130.27
2018-12-12T06:14:04.450Z,102122.51
2018-12-12T06:16:33.149Z,102130.72
2018-12-12T06:19:01.892Z,102136.70
2018-12-12T06:21:31.374Z,102138.16
2018-12-12T06:24:03.007Z,102147.95
2018-12-12T06:26:37.349Z,102149.28
2018-12-12T06:29:02.545Z,102149.13
2018-12-12T06:31:31.456Z,102141.98
2018-12-12T06:34:00.345Z,102144.14
2018-12-12T06:36:29.229Z,102146.06
2018-12-12T06:38:58.929Z,102143.42
2018-12-12T06:41:28.551Z,102157.23
2018-12-12T06:43:57.605Z,102165.61
2018-12-12T06:46:27.418Z,102166.98
2018-12-12T06:48:56.494Z,102168.39
2018-12-12T06:51:26.127Z,102171.88
2018-12-12T06:53:54.936Z,102177.62
2018-12-12T06:56:23.698Z,102178.19
2018-12-12T06:58:53.442Z,102183.88
2018-12-12T07:01:23.163Z,102184.53
2018-12-12T07:03:52.549Z,102183.31
2018-12-12T07:06:22.076Z,102175.20
2018-12-12T07:08:52.021Z,102184.53
2018-12-12T07:11:20.908Z,102187.16
2018-12-12T07:13:50.348Z,102187.30
2018-12-12T07:16:19.163Z,102188.39
2018-12-12T07:18:47.955Z,102188.86
2018-12-12T07:21:17.897Z,102193.38
2018-12-12T07:23:47.105Z,102192.91
2018-12-12T07:26:15.877Z,102198.38
2018-12-12T07:28:44.731Z,102206.28
2018-12-12T07:31:13.802Z,102201.10
2018-12-12T07:33:43.217Z,102206.09
2018-12-12T07:36:12.131Z,102209.20
2018-12-12T07:38:40.929Z,102197.62
2018-12-12T07:41:12.634Z,102216.63
2018-12-12T07:43:41.504Z,102220.52
2018-12-12T07:46:10.984Z,102220.23
2018-12-12T07:48:40.529Z,102224.19
2018-12-12T07:51:09.860Z,102220.23
2018-12-12T07:53:38.622Z,102222.39
2018-12-12T07:56:07.559Z,102227.67
2018-12-12T07:58:36.294Z,102222.67
2018-12-12T08:01:05.823Z,102223.36
2018-12-12T08:03:35.357Z,102223.90
2018-12-12T08:06:04.563Z,102226.75
2018-12-12T08:08:33.373Z,102231.17
2018-12-12T08:11:02.638Z,102234.37
2018-12-12T08:13:32.208Z,102235.69
2018-12-12T08:16:01.678Z,102239.81
2018-12-12T08:18:30.370Z,102229.75
2018-12-12T08:21:00.617Z,102219.12
2018-12-12T08:23:29.973Z,102225.43
2018-12-12T08:25:59.482Z,102227.09
2018-12-12T08:28:28.258Z,102228.52
2018-12-12T08:30:57.341Z,102228.52
2018-12-12T08:33:26.409Z,102237.29
2018-12-12T08:35:55.504Z,102239.17
2018-12-12T08:38:24.370Z,102248.02
2018-12-12T08:40:54.714Z,102248.30
2018-12-12T08:43:23.401Z,102244.23
2018-12-12T08:45:53.474Z,102242.36
2018-12-12T08:48:22.896Z,102247.16
2018-12-12T08:50:52.414Z,102246.31
2018-12-12T08:53:21.111Z,102242.64
2018-12-12T08:55:50.010Z,102226.06
2018-12-12T08:58:18.729Z,102239.91
2018-12-12T09:00:48.324Z,102245.07
2018-12-12T09:03:17.869Z,102244.53
2018-12-12T09:05:46.680Z,102250.09
2018-12-12T09:08:15.367Z,102245.66
2018-12-12T09:10:44.143Z,102247.72
2018-12-12T09:13:15.384Z,102250.17
2018-12-12T09:15:44.225Z,102253.91
2018-12-12T09:18:12.964Z,102259.47
2018-12-12T09:20:42.301Z,102254.48
2018-12-12T09:23:12.156Z,102260.23
2018-12-12T09:25:40.846Z,102258.91
2018-12-12T09:28:10.212Z,102254.27
2018-12-12T09:30:38.925Z,102263.87
2018-12-12T09:33:07.657Z,102272.09
2018-12-12T09:35:36.616Z,102272.00
2018-12-12T09:38:05.386Z,102270.68
2018-12-12T09:40:35.073Z,102280.10
2018-12-12T09:43:04.236Z,102269.91
2018-12-12T09:45:34.122Z,102268.21
2018-12-12T09:48:02.825Z,102267.30
2018-12-12T09:50:31.745Z,102273.04
2018-12-12T09:53:02.792Z,102270.47
2018-12-12T09:55:31.469Z,102266.14
2018-12-12T09:58:01.442Z,102266.89
2018-12-12T10:00:30.848Z,102267.18
2018-12-12T10:03:00.487Z,102267.25
2018-12-12T10:05:29.936Z,102270.73
2018-12-12T10:07:58.909Z,102274.78
2018-12-12T10:10:27.616Z,102273.06
2018-12-12T10:12:56.671Z,102273.16
2018-12-12T10:15:26.394Z,102268.13
2018-12-12T10:17:55.197Z,102266.52
2018-12-12T10:20:24.063Z,102277.27
2018-12-12T10:22:53.585Z,102276.41
2018-12-12T10:25:22.378Z,102271.80
2018-12-12T10:27:51.055Z,102267.98
2018-12-12T10:30:24.697Z,102271.43
2018-12-12T10:32:53.522Z,102271.80
2018-12-12T10:35:22.309Z,102267.66
2018-12-12T10:37:51.208Z,102262.08
2018-12-12T10:40:20.689Z,102258.69
2018-12-12T10:42:50.220Z,102268.03
2018-12-12T10:45:19.698Z,102258.13
2018-12-12T10:47:48.394Z,102258.92
2018-12-12T10:50:17.188Z,102251.94
2018-12-12T10:52:46.470Z,102250.67
2018-12-12T10:55:29.919Z,102251.02
2018-12-12T10:57:59.116Z,102241.30
2018-12-12T11:03:24.377Z,102252.87
2018-12-12T11:05:54.191Z,102257.07
2018-12-12T11:08:22.892Z,102259.89
2018-12-12T11:10:51.680Z,102267.14
2018-12-12T11:13:21.473Z,102261.77
2018-12-12T11:15:50.241Z,102259.50
2018-12-12T11:18:23.741Z,102261.39
2018-12-12T11:20:52.620Z,102265.45
2018-12-12T11:23:22.049Z,102271.40
2018-12-12T11:25:50.761Z,102269.13
2018-12-12T11:28:19.558Z,102267.14
2018-12-12T11:30:48.512Z,102274.02
2018-12-12T11:33:21.091Z,102271.30
2018-12-12T11:35:50.289Z,102271.22
2018-12-12T11:38:19.170Z,102273.62
2018-12-12T11:40:49.656Z,102282.77
2018-12-12T11:43:18.813Z,102281.73
2018-12-12T11:45:48.470Z,102278.25
2018-12-12T11:48:17.386Z,102273.99
2018-12-12T11:50:48.362Z,102279.89
2018-12-12T11:53:17.366Z,102276.17
2018-12-12T11:55:46.130Z,102283.43
2018-12-12T11:58:15.871Z,102288.23
2018-12-12T12:00:45.794Z,102284.57
2018-12-12T12:03:15.614Z,102285.42
2018-12-12T12:05:44.557Z,102291.45
2018-12-12T12:08:13.322Z,102292.25
2018-12-12T12:10:42.025Z,102285.88
2018-12-12T12:13:12.873Z,102285.13
2018-12-12T12:15:41.787Z,102288.38
2018-12-12T12:18:11.067Z,102283.66
2018-12-12T12:20:39.774Z,102289.51
2018-12-12T12:23:09.027Z,102296.26
2018-12-12T12:25:37.832Z,102291.73
2018-12-12T12:28:06.559Z,102289.19
2018-12-12T12:30:35.387Z,102289.84
2018-12-12T12:33:05.238Z,102296.21
2018-12-12T12:35:34.090Z,102289.04
2018-12-12T12:38:03.473Z,102295.72
2018-12-12T12:40:33.165Z,102298.09
2018-12-12T12:43:01.956Z,102289.70
2018-12-12T12:45:31.381Z,102306.87
2018-12-12T12:48:00.251Z,102303.04
2018-12-12T12:50:28.968Z,102300.98
2018-12-12T12:52:58.577Z,102307.86
2018-12-12T12:55:29.733Z,102308.23
2018-12-12T12:57:58.477Z,102308.14
2018-12-12T13:00:27.594Z,102307.29
2018-12-12T13:02:57.210Z,102309.36
2018-12-12T13:05:26.601Z,102308.52
2018-12-12T13:07:55.381Z,102314.22
2018-12-12T13:10:24.446Z,102315.16
2018-12-12T13:12:53.433Z,102309.22
2018-12-12T13:15:23.045Z,102298.76
2018-12-12T13:17:52.157Z,102298.38
2018-12-12T13:20:21.014Z,102300.64
2018-12-12T13:22:50.327Z,102303.20
2018-12-12T13:25:19.146Z,102315.39
2018-12-12T13:27:48.074Z,102318.41
2018-12-12T13:30:16.906Z,102308.98
2018-12-12T13:32:45.678Z,102307.95
2018-12-12T13:35:15.628Z,102312.91
2018-12-12T13:37:44.410Z,102316.97
2018-12-12T13:40:13.739Z,102320.30
2018-12-12T13:42:42.473Z,102322.46
2018-12-12T13:45:12.921Z,102316.15
2018-12-12T13:47:41.636Z,102311.00
2018-12-12T13:50:10.411Z,102310.63
2018-12-12T13:52:40.111Z,102314.96
2018-12-12T13:55:08.849Z,102318.92
2018-12-12T13:57:38.504Z,102319.39
2018-12-12T14:00:08.103Z,102314.86
2018-12-12T14:02:39.052Z,102320.89
2018-12-12T14:05:08.336Z,102322.97
2018-12-12T14:07:37.457Z,102320.64
2018-12-12T14:10:06.425Z,102325.23
2018-12-12T14:12:35.217Z,102330.22
2018-12-12T14:15:04.735Z,102330.60
2018-12-12T14:17:33.997Z,102329.94
2018-12-12T14:20:02.772Z,102330.88
2018-12-12T14:22:32.101Z,102324.28
2018-12-12T14:25:00.853Z,102331.26
2018-12-12T14:27:29.763Z,102336.16
2018-12-12T14:29:59.929Z,102334.69
2018-12-12T14:32:29.489Z,102340.33
2018-12-12T14:34:58.482Z,102341.08
2018-12-12T14:37:28.771Z,102337.12
2018-12-12T14:39:58.129Z,102339.76
2018-12-12T14:42:28.150Z,102335.23
2018-12-12T14:44:57.034Z,102339.58
2018-12-12T14:47:25.902Z,102337.50
2018-12-12T14:49:54.688Z,102337.41
2018-12-12T14:52:24.182Z,102347.11
2018-12-12T14:54:52.982Z,102348.15
2018-12-12T14:57:22.016Z,102345.23
2018-12-12T14:59:51.546Z,102354.06
2018-12-12T15:02:21.196Z,102355.95
2018-12-12T15:04:50.597Z,102352.94
2018-12-12T15:07:20.340Z,102346.16
2018-12-12T15:09:49.201Z,102351.42
2018-12-12T15:12:18.290Z,102352.75
2018-12-12T15:14:47.772Z,102355.00
2018-12-12T15:17:17.046Z,102352.75
2018-12-12T15:19:45.757Z,102356.89
2018-12-12T15:22:15.616Z,102345.30
2018-12-12T15:24:44.364Z,102344.45
2018-12-12T15:27:14.678Z,102346.72
2018-12-12T15:29:44.566Z,102354.07
2018-12-12T15:32:13.319Z,102355.17
2018-12-12T15:34:42.804Z,102337.95
2018-12-12T15:37:11.600Z,102346.34
2018-12-12T15:39:40.987Z,102354.05
2018-12-12T15:42:09.750Z,102360.27
2018-12-12T15:44:39.041Z,102367.98
2018-12-12T15:47:07.790Z,102361.77
2018-12-12T15:49:36.529Z,102365.54
2018-12-12T15:52:05.849Z,102360.54
2018-12-12T15:54:34.570Z,102362.99
2018-12-12T15:57:03.469Z,102367.27
2018-12-12T15:59:32.970Z,102374.52
2018-12-12T16:02:02.269Z,102363.95
2018-12-12T16:04:31.573Z,102372.63
2018-12-12T16:07:00.355Z,102369.36
2018-12-12T16:09:29.230Z,102373.78
2018-12-12T16:11:59.337Z,102371.48
2018-12-12T16:14:28.818Z,102375.29
2018-12-12T16:16:57.730Z,102372.73
2018-12-12T16:19:26.630Z,102371.80
2018-12-12T16:21:56.571Z,102373.12
2018-12-12T16:24:25.388Z,102379.53
2018-12-12T16:26:54.144Z,102372.47
2018-12-12T16:29:24.077Z,102367.19
2018-12-12T16:31:54.154Z,102353.23
2018-12-12T16:34:23.537Z,102366.34
2018-12-12T16:36:52.280Z,102362.56
2018-12-12T16:39:22.272Z,102355.69
2018-12-12T16:41:51.013Z,102363.89
2018-12-12T16:44:20.457Z,102368.69
2018-12-12T16:46:51.541Z,102379.63
2018-12-12T16:49:20.330Z,102381.59
2018-12-12T16:51:49.998Z,102378.38
2018-12-12T16:54:18.755Z,102383.01
2018-12-12T16:56:47.603Z,102393.83
2018-12-12T16:59:17.413Z,102391.09
2018-12-12T17:01:46.831Z,102382.73
2018-12-12T17:04:16.057Z,102385.64
2018-12-12T17:06:44.934Z,102386.20
2018-12-12T17:09:13.653Z,102384.42
2018-12-12T17:11:42.479Z,102380.73
2018-12-12T17:14:11.991Z,102386.30
2018-12-12T17:16:40.729Z,102389.58
2018-12-12T17:19:09.421Z,102389.28
2018-12-12T17:21:38.993Z,102384.48
2018-12-12T17:24:07.764Z,102387.41
2018-12-12T17:26:37.282Z,102386.27
2018-12-12T17:29:06.172Z,102381.17
2018-12-12T17:31:35.212Z,102386.27
2018-12-12T17:34:04.596Z,102380.16
2018-12-12T17:36:33.941Z,102380.36
2018-12-12T17:39:02.876Z,102384.98
2018-12-12T17:41:32.261Z,102391.28
2018-12-12T17:44:01.162Z,102387.97
2018-12-12T17:46:30.015Z,102394.94
2018-12-12T17:48:58.869Z,102395.03
2018-12-12T17:51:28.770Z,102402.64
2018-12-12T17:53:58.833Z,102392.02
2018-12-12T17:56:27.731Z,102402.94
2018-12-12T17:58:57.248Z,102406.98
2018-12-12T18:01:26.689Z,102412.80
2018-12-12T18:03:56.086Z,102409.23
2018-12-12T18:06:25.057Z,102411.40
2018-12-12T18:08:54.538Z,102423.73
2018-12-12T18:11:23.329Z,102417.69
2018-12-12T18:13:52.678Z,102420.91
2018-12-12T18:16:21.716Z,102426.45
2018-12-12T18:18:50.581Z,102417.69
2018-12-12T18:21:20.270Z,102420.88
2018-12-12T18:23:49.892Z,102419.86
2018-12-12T18:26:19.176Z,102421.00
2018-12-12T18:28:47.929Z,102428.06
2018-12-12T18:31:16.705Z,102425.08
2018-12-12T18:33:46.361Z,102427.03
2018-12-12T18:36:15.456Z,102424.70
2018-12-12T18:38:44.264Z,102424.52
2018-12-12T18:41:13.618Z,102426.52
2018-12-12T18:43:42.437Z,102426.22
2018-12-12T18:46:11.998Z,102425.84
2018-12-12T18:48:40.742Z,102433.83
2018-12-12T18:51:10.295Z,102426.95
2018-12-12T18:53:38.974Z,102426.78
2018-12-12T18:56:07.873Z,102426.74
2018-12-12T18:58:37.554Z,102426.53
2018-12-12T19:01:06.834Z,102435.84
2018-12-12T19:03:36.219Z,102440.26
2018-12-12T19:06:04.998Z,102436.69
2018-12-12T19:08:34.753Z,102439.06
2018-12-12T19:11:03.549Z,102435.97
2018-12-12T19:13:33.074Z,102435.20
2018-12-12T19:16:01.833Z,102432.69
2018-12-12T19:18:30.738Z,102440.22
2018-12-12T19:21:01.078Z,102442.59
2018-12-12T19:23:31.096Z,102440.81
2018-12-12T19:26:00.775Z,102438.34
2018-12-12T19:28:29.653Z,102437.58
2018-12-12T19:31:01.608Z,102440.98
2018-12-12T19:33:31.471Z,102445.95
2018-12-12T19:36:00.570Z,102439.24
2018-12-12T19:38:30.138Z,102440.56
2018-12-12T19:41:00.012Z,102439.83
2018-12-12T19:43:28.963Z,102432.95
2018-12-12T19:45:58.389Z,102432.95
2018-12-12T19:48:27.410Z,102446.50
2018-12-12T19:50:57.030Z,102439.63
2018-12-12T19:53:26.159Z,102442.34
2018-12-12T19:55:55.445Z,102442.89
2018-12-12T19:58:25.395Z,102442.59
2018-12-12T20:00:55.015Z,102439.66
2018-12-12T20:03:23.789Z,102438.89
2018-12-12T20:05:52.609Z,102430.52
2018-12-12T20:08:22.198Z,102438.94
2018-12-12T20:10:51.052Z,102439.74
2018-12-12T20:13:20.621Z,102444.25
2018-12-12T20:15:49.457Z,102446.41
2018-12-12T20:18:19.022Z,102449.34
2018-12-12T20:20:48.388Z,102453.77
2018-12-12T20:23:18.396Z,102447.73
2018-12-12T20:25:48.046Z,102456.00
2018-12-12T20:28:18.211Z,102454.55
2018-12-12T20:30:47.271Z,102450.98
2018-12-12T20:33:17.106Z,102443.77
2018-12-12T20:35:48.281Z,102448.87
2018-12-12T20:38:17.973Z,102448.88
2018-12-12T20:40:47.798Z,102454.36
2018-12-12T20:43:16.847Z,102444.97
2018-12-12T20:45:45.851Z,102449.01
2018-12-12T20:48:14.940Z,102447.95
2018-12-12T20:50:44.885Z,102453.61
2018-12-12T20:53:13.729Z,102445.45
2018-12-12T20:55:42.529Z,102451.78
2018-12-12T20:58:12.534Z,102453.01
2018-12-12T21:00:41.899Z,102452.42
2018-12-12T21:03:11.929Z,102454.88
2018-12-12T21:05:41.705Z,102454.33
2018-12-12T21:08:11.451Z,102448.97
2018-12-12T21:10:40.353Z,102456.70
2018-12-12T21:13:09.109Z,102456.23
2018-12-12T21:15:40.517Z,102454.54
2018-12-12T21:18:09.243Z,102449.91
2018-12-12T21:20:37.991Z,102450.64
2018-12-12T21:23:07.553Z,102449.78
2018-12-12T21:25:37.206Z,102441.41
2018-12-12T21:28:06.014Z,102441.62
2018-12-12T21:30:34.763Z,102438.22
2018-12-12T21:33:03.546Z,102437.67
2018-12-12T21:35:33.092Z,102437.32
2018-12-12T21:40:53.015Z,102434.09
2018-12-12T21:43:22.545Z,102432.31
2018-12-12T21:45:51.411Z,102437.49
2018-12-12T21:48:20.170Z,102438.17
2018-12-12T21:50:49.835Z,102438.25
2018-12-12T21:53:18.694Z,102436.09
2018-12-12T21:56:50.409Z,102440.42
2018-12-12T21:59:20.560Z,102436.09
2018-12-12T22:01:50.236Z,102446.34
2018-12-12T22:04:19.564Z,102440.69
2018-12-12T22:06:48.470Z,102436.34
2018-12-12T22:09:18.573Z,102441.36
2018-12-12T22:11:47.376Z,102443.14
2018-12-12T22:14:17.097Z,102442.21
2018-12-12T22:16:45.894Z,102447.02
2018-12-12T22:19:14.645Z,102451.61
2018-12-12T22:21:44.202Z,102445.78
2018-12-12T22:24:12.985Z,102446.34
2018-12-12T22:26:41.732Z,102443.23
2018-12-12T22:29:10.542Z,102447.28
2018-12-12T22:31:39.355Z,102447.57
2018-12-12T22:34:08.707Z,102455.19
2018-12-12T22:36:38.212Z,102449.56
2018-12-12T22:39:08.808Z,102452.08
2018-12-12T22:41:37.896Z,102453.69
2018-12-12T22:44:06.687Z,102461.60
2018-12-12T22:46:35.487Z,102448.42
2018-12-12T22:49:04.232Z,102461.81
2018-12-12T22:51:33.937Z,102458.23
2018-12-12T22:54:02.704Z,102459.84
2018-12-12T22:56:31.450Z,102461.34
2018-12-12T22:59:01.037Z,102460.61
2018-12-12T23:01:30.656Z,102464.77
2018-12-12T23:04:00.309Z,102465.15
2018-12-12T23:06:30.131Z,102464.39
2018-12-12T23:09:00.678Z,102460.26
2018-12-12T23:11:30.139Z,102462.89
2018-12-12T23:13:59.629Z,102450.73
2018-12-12T23:16:28.503Z,102451.38
2018-12-12T23:18:58.289Z,102448.83
2018-12-12T23:21:28.306Z,102450.63
2018-12-12T23:23:57.435Z,102441.48
2018-12-12T23:26:26.914Z,102440.34
2018-12-12T23:28:55.777Z,102443.09
2018-12-12T23:31:24.556Z,102443.82
2018-12-12T23:33:54.010Z,102445.73
2018-12-12T23:36:37.174Z,102462.58
2018-12-12T23:39:07.379Z,102458.20
2018-12-12T23:41:36.468Z,102460.95
2018-12-12T23:44:06.077Z,102458.11
2018-12-12T23:46:34.834Z,102454.71
2018-12-12T23:49:03.590Z,102449.78
2018-12-12T23:51:32.841Z,102453.56
2018-12-12T23:54:01.746Z,102452.72
2018-12-12T23:59:23.449Z,102450.17
